Terminal Aerodrome Forecast
Issued by NWS Charleston, WV

Current Version | Previous Version | Graphics & Text | Print | Product List | Glossary On
Versions: 1 2 3 4 5 6 7 8 9 10 11 12 13 14 15 16 17 18 19 20 21 22 23 24 25
000
FTUS41 KRLX 272000 AAB
TAFBKW
TAF AMD
KBKW 272014Z 2720/2818 23012G18KT P6SM VCTS SCT025CB SCT090
      TEMPO 2722/2724 3SM TSRA BKN025CB OVC090
     FM280300 27007KT P6SM BKN040
     FM281400 29011KT P6SM BKN025=

USA.gov is the U.S. government's official web portal to all federal, state and local government web resources and services.